createdAt,value
2022-08-26T00:01:29.224Z,18.9
2022-08-26T00:03:27.928Z,18.9
2022-08-26T00:05:27.923Z,19
2022-08-26T00:07:27.926Z,19
2022-08-26T00:09:27.935Z,19
2022-08-26T00:11:27.947Z,19
2022-08-26T00:13:27.937Z,19
2022-08-26T00:15:27.937Z,19
2022-08-26T00:17:27.937Z,19
2022-08-26T00:19:27.941Z,19
2022-08-26T00:21:27.954Z,19
2022-08-26T00:23:28.911Z,19
2022-08-26T00:25:27.941Z,19
2022-08-26T00:27:27.940Z,19
2022-08-26T00:29:27.941Z,19
2022-08-26T00:31:28.005Z,19
2022-08-26T00:33:27.944Z,19
2022-08-26T00:35:28.045Z,19
2022-08-26T00:37:27.948Z,19.1
2022-08-26T00:39:27.952Z,19.1
2022-08-26T00:41:27.963Z,19.1
2022-08-26T00:43:27.954Z,19.1
2022-08-26T00:45:27.994Z,19.1
2022-08-26T00:47:27.959Z,19.1
2022-08-26T00:49:27.968Z,19.1
2022-08-26T00:51:28.271Z,19.1
2022-08-26T00:53:28.047Z,19.1
2022-08-26T00:55:34.583Z,19.1
2022-08-26T00:57:27.975Z,19.1
2022-08-26T00:59:27.971Z,19.1
2022-08-26T01:01:28.058Z,19.1
2022-08-26T01:03:27.980Z,19.1
2022-08-26T01:05:27.980Z,19.1
2022-08-26T01:07:30.086Z,19.1
2022-08-26T01:09:27.991Z,19.1
2022-08-26T01:11:28.007Z,19.1
2022-08-26T01:13:27.998Z,19.1
2022-08-26T01:15:27.995Z,19.1
2022-08-26T01:17:28.002Z,19.1
2022-08-26T01:19:28.014Z,19.1
2022-08-26T01:21:28.021Z,19.1
2022-08-26T01:23:28.013Z,19.1
2022-08-26T01:25:28.014Z,19.1
2022-08-26T01:27:28.010Z,19.1
2022-08-26T01:29:28.013Z,19.1
2022-08-26T01:31:28.077Z,19.1
2022-08-26T01:33:28.031Z,19.1
2022-08-26T01:35:28.030Z,19.1
2022-08-26T01:37:28.033Z,19.1
2022-08-26T01:39:28.022Z,19.1
2022-08-26T01:41:29.203Z,19.1
2022-08-26T01:43:28.030Z,19.1
2022-08-26T01:45:28.062Z,19.1
2022-08-26T01:47:28.034Z,19.1
2022-08-26T01:49:28.048Z,19.1
2022-08-26T01:51:28.069Z,19.1
2022-08-26T01:53:28.048Z,19.1
2022-08-26T01:55:32.104Z,19.1
2022-08-26T01:57:28.049Z,19.1
2022-08-26T01:59:28.058Z,19.1
2022-08-26T02:01:28.894Z,19.1
2022-08-26T02:03:28.093Z,19.2
2022-08-26T02:05:28.065Z,19.2
2022-08-26T02:07:28.110Z,19.2
2022-08-26T02:09:28.075Z,19.2
2022-08-26T02:11:28.083Z,19.2
2022-08-26T02:13:28.080Z,19.2
2022-08-26T02:15:28.072Z,19.2
2022-08-26T02:17:28.073Z,19.2
2022-08-26T02:19:28.091Z,19.2
2022-08-26T02:21:28.107Z,19.2
2022-08-26T02:23:28.099Z,19.2
2022-08-26T02:25:28.110Z,19.2
2022-08-26T02:27:28.279Z,19.2
2022-08-26T02:29:28.109Z,19.2
2022-08-26T02:31:28.134Z,19.2
2022-08-26T02:33:28.110Z,19.2
2022-08-26T02:35:28.117Z,19.2
2022-08-26T02:37:28.111Z,19.2
2022-08-26T02:39:28.119Z,19.2
2022-08-26T02:41:28.136Z,19.2
2022-08-26T02:43:31.582Z,19.2
2022-08-26T02:45:28.137Z,19.2
2022-08-26T02:47:28.982Z,19.2
2022-08-26T02:49:28.134Z,19.2
2022-08-26T02:51:28.153Z,19.2
2022-08-26T02:53:28.142Z,19.2
2022-08-26T02:55:28.160Z,19.2
2022-08-26T02:57:28.158Z,19.2
2022-08-26T02:59:28.180Z,19.2
2022-08-26T03:01:28.246Z,19.2
2022-08-26T03:03:28.170Z,19.2
2022-08-26T03:05:28.172Z,19.2
2022-08-26T03:07:28.175Z,19.2
2022-08-26T03:09:28.176Z,19.2
2022-08-26T03:11:32.374Z,19.2
2022-08-26T03:13:28.189Z,19.2
2022-08-26T03:15:28.188Z,19.2
2022-08-26T03:17:28.227Z,19.2
2022-08-26T03:19:28.199Z,19.2
2022-08-26T03:21:28.220Z,19.2
2022-08-26T03:23:28.206Z,19.2
2022-08-26T03:25:28.200Z,19.2
2022-08-26T03:27:28.211Z,19.1
2022-08-26T03:29:28.222Z,19.1
2022-08-26T03:31:28.311Z,19.1
2022-08-26T03:33:28.222Z,19.1
2022-08-26T03:35:28.229Z,19.1
2022-08-26T03:37:28.226Z,19.1
2022-08-26T03:39:28.240Z,19.1
2022-08-26T03:41:28.245Z,19.1
2022-08-26T03:43:28.253Z,19.1
2022-08-26T03:45:28.254Z,19.1
2022-08-26T03:47:28.254Z,19.1
2022-08-26T03:49:28.855Z,19
2022-08-26T03:51:28.259Z,19
2022-08-26T03:53:28.266Z,19
2022-08-26T03:55:28.254Z,19
2022-08-26T03:57:28.269Z,19
2022-08-26T03:59:28.269Z,19
2022-08-26T04:01:28.350Z,18.9
2022-08-26T04:03:28.302Z,18.9
2022-08-26T04:05:28.380Z,18.9
2022-08-26T04:07:28.289Z,18.9
2022-08-26T04:09:28.304Z,18.9
2022-08-26T04:11:28.307Z,18.9
2022-08-26T04:13:28.306Z,18.9
2022-08-26T04:15:28.318Z,18.9
2022-08-26T04:17:28.317Z,18.9
2022-08-26T04:19:28.316Z,18.9
2022-08-26T04:21:28.329Z,18.9
2022-08-26T04:23:28.330Z,18.9
2022-08-26T04:25:28.328Z,18.9
2022-08-26T04:27:28.339Z,18.9
2022-08-26T04:29:28.355Z,18.9
2022-08-26T04:31:28.419Z,18.9
2022-08-26T04:33:32.341Z,18.9
2022-08-26T04:35:28.366Z,18.9
2022-08-26T04:37:28.373Z,18.8
2022-08-26T04:39:28.375Z,18.8
2022-08-26T04:41:28.377Z,18.8
2022-08-26T04:43:28.380Z,18.8
2022-08-26T04:45:28.384Z,18.8
2022-08-26T04:47:32.181Z,18.8
2022-08-26T04:49:28.393Z,18.8
2022-08-26T04:51:28.396Z,18.8
2022-08-26T04:53:28.404Z,18.8
2022-08-26T04:55:29.042Z,18.8
2022-08-26T04:57:28.417Z,18.8
2022-08-26T04:59:28.417Z,18.8
2022-08-26T05:01:28.524Z,18.8
2022-08-26T05:03:30.383Z,18.8
2022-08-26T05:05:28.440Z,18.8
2022-08-26T05:07:28.447Z,18.8
2022-08-26T05:09:28.449Z,18.8
2022-08-26T05:11:28.458Z,18.8
2022-08-26T05:13:28.461Z,18.8
2022-08-26T05:15:28.466Z,18.8
2022-08-26T05:17:28.479Z,18.8
2022-08-26T05:19:28.475Z,18.8
2022-08-26T05:21:28.491Z,18.8
2022-08-26T05:23:28.491Z,18.8
2022-08-26T05:25:28.496Z,18.8
2022-08-26T05:27:28.504Z,18.8
2022-08-26T05:29:28.512Z,18.7
2022-08-26T05:31:28.572Z,18.7
2022-08-26T05:33:28.517Z,18.7
2022-08-26T05:35:28.512Z,18.7
2022-08-26T05:37:28.518Z,18.7
2022-08-26T05:39:28.520Z,18.7
2022-08-26T05:41:34.682Z,18.7
2022-08-26T05:43:28.527Z,18.7
2022-08-26T05:45:28.539Z,18.7
2022-08-26T05:47:28.540Z,18.7
2022-08-26T05:49:28.539Z,18.7
2022-08-26T05:51:29.247Z,18.7
2022-08-26T05:53:28.552Z,18.7
2022-08-26T05:55:28.553Z,18.7
2022-08-26T05:57:28.558Z,18.7
2022-08-26T05:59:28.562Z,18.7
2022-08-26T06:01:28.592Z,18.7
2022-08-26T06:03:28.566Z,18.7
2022-08-26T06:05:28.568Z,18.7
2022-08-26T06:07:28.576Z,18.7
2022-08-26T06:09:28.574Z,18.6
2022-08-26T06:11:28.583Z,18.6
2022-08-26T06:13:30.207Z,18.7
2022-08-26T06:15:28.583Z,18.7
2022-08-26T06:17:28.589Z,18.7
2022-08-26T06:19:32.869Z,18.7
2022-08-26T06:21:28.590Z,18.7
2022-08-26T06:23:28.592Z,18.7
2022-08-26T06:25:28.587Z,18.7
2022-08-26T06:27:32.549Z,18.7
2022-08-26T06:29:28.592Z,18.7
2022-08-26T06:31:28.640Z,18.8
2022-08-26T06:33:28.600Z,18.7
2022-08-26T06:35:28.603Z,18.8
2022-08-26T06:37:28.605Z,18.8
2022-08-26T06:39:30.680Z,18.8
2022-08-26T06:41:28.615Z,18.8
2022-08-26T06:43:28.629Z,18.8
2022-08-26T06:45:28.612Z,18.8
2022-08-26T06:47:28.613Z,18.8
2022-08-26T06:49:28.614Z,18.8
2022-08-26T06:51:28.614Z,18.8
2022-08-26T06:53:28.621Z,18.8
2022-08-26T06:55:28.617Z,18.8
2022-08-26T06:57:28.618Z,18.8
2022-08-26T06:59:28.626Z,18.9
2022-08-26T07:01:28.698Z,18.9
2022-08-26T07:03:28.639Z,18.9
2022-08-26T07:05:28.651Z,18.9
2022-08-26T07:07:28.650Z,18.9
2022-08-26T07:09:28.660Z,18.9
2022-08-26T07:11:28.662Z,18.9
2022-08-26T07:13:29.976Z,18.9
2022-08-26T07:15:31.134Z,18.9
2022-08-26T07:17:29.005Z,18.9
2022-08-26T07:19:30.691Z,18.9
2022-08-26T07:21:28.692Z,18.9
2022-08-26T07:23:28.701Z,18.9
2022-08-26T07:25:28.718Z,18.9
2022-08-26T07:27:28.724Z,18.9
2022-08-26T07:29:28.734Z,19
2022-08-26T07:31:28.815Z,19
2022-08-26T07:33:28.749Z,19
2022-08-26T07:35:28.758Z,19
2022-08-26T07:37:28.766Z,19
2022-08-26T07:39:28.774Z,19
2022-08-26T07:43:28.800Z,19
2022-08-26T07:45:28.802Z,19
2022-08-26T07:47:28.812Z,19.1
2022-08-26T07:49:28.872Z,19.1
2022-08-26T07:51:28.831Z,19.1
2022-08-26T07:53:28.843Z,19.1
2022-08-26T07:55:28.851Z,19.1
2022-08-26T07:57:28.858Z,19.1
2022-08-26T07:59:28.866Z,19.1
2022-08-26T08:01:28.873Z,19.1
2022-08-26T08:03:28.886Z,19.1
2022-08-26T08:05:30.559Z,19.1
2022-08-26T08:07:38.325Z,19.1
2022-08-26T08:09:28.906Z,19.1
2022-08-26T08:11:28.910Z,19.1
2022-08-26T08:13:28.926Z,19.1
2022-08-26T08:15:28.940Z,19.1
2022-08-26T08:17:28.936Z,19.1
2022-08-26T08:19:36.912Z,19.1
2022-08-26T08:21:29.042Z,19.1
2022-08-26T08:23:28.963Z,19.1
2022-08-26T08:25:28.970Z,19.1
2022-08-26T08:27:28.991Z,19.1
2022-08-26T08:29:28.991Z,19.1
2022-08-26T08:31:54.727Z,19.1
2022-08-26T08:33:29.017Z,19.2
2022-08-26T08:35:29.025Z,19.2
2022-08-26T08:37:29.034Z,19.2
2022-08-26T08:39:29.042Z,19.2
2022-08-26T08:41:29.056Z,19.2
2022-08-26T08:43:29.063Z,19.2
2022-08-26T08:45:30.456Z,19.2
2022-08-26T08:47:29.089Z,19.2
2022-08-26T08:49:29.215Z,19.2
2022-08-26T08:51:29.114Z,19.2
2022-08-26T08:53:29.123Z,19.2
2022-08-26T08:55:29.136Z,19.2
2022-08-26T08:57:29.148Z,19.2
2022-08-26T08:59:29.158Z,19.2
2022-08-26T09:01:29.197Z,19.2
2022-08-26T09:03:29.198Z,19.3
2022-08-26T09:05:29.167Z,19.3
2022-08-26T09:07:30.460Z,19.3
2022-08-26T09:09:29.180Z,19.3
2022-08-26T09:11:29.184Z,19.3
2022-08-26T09:13:29.188Z,19.3
2022-08-26T09:15:30.496Z,19.3
2022-08-26T09:17:29.215Z,19.3
2022-08-26T09:19:29.241Z,19.3
2022-08-26T09:21:29.232Z,19.3
2022-08-26T09:23:29.246Z,19.3
2022-08-26T09:25:29.261Z,19.3
2022-08-26T09:27:29.268Z,19.3
2022-08-26T09:29:29.281Z,19.3
2022-08-26T09:31:29.306Z,19.3
2022-08-26T09:33:29.295Z,19.3
2022-08-26T09:35:29.300Z,19.3
2022-08-26T09:37:29.313Z,19.3
2022-08-26T09:39:29.322Z,19.3
2022-08-26T09:41:29.329Z,19.3
2022-08-26T09:43:29.343Z,19.3
2022-08-26T09:45:29.354Z,19.3
2022-08-26T09:47:29.362Z,19.3
2022-08-26T09:49:31.663Z,19.3
2022-08-26T09:51:29.379Z,19.3
2022-08-26T09:53:30.446Z,19.3
2022-08-26T09:55:29.391Z,19.3
2022-08-26T09:57:29.398Z,19.3
2022-08-26T09:59:29.407Z,19.4
2022-08-26T10:01:30.062Z,19.4
2022-08-26T10:03:31.437Z,19.4
2022-08-26T10:05:29.424Z,19.4
2022-08-26T10:07:29.433Z,19.4
2022-08-26T10:09:29.791Z,19.4
2022-08-26T10:11:29.444Z,19.4
2022-08-26T10:13:29.459Z,19.4
2022-08-26T10:15:29.469Z,19.4
2022-08-26T10:17:30.841Z,19.4
2022-08-26T10:19:40.212Z,19.4
2022-08-26T10:21:29.497Z,19.4
2022-08-26T10:23:29.547Z,19.4
2022-08-26T10:25:29.519Z,19.4
2022-08-26T10:27:29.529Z,19.4
2022-08-26T10:29:29.539Z,19.4
2022-08-26T10:31:29.590Z,19.4
2022-08-26T10:33:29.565Z,19.4
2022-08-26T10:35:29.576Z,19.4
2022-08-26T10:37:29.585Z,19.4
2022-08-26T10:39:29.606Z,19.4
2022-08-26T10:41:29.601Z,19.4
2022-08-26T10:43:29.605Z,19.4
2022-08-26T10:45:29.638Z,19.4
2022-08-26T10:47:29.626Z,19.4
2022-08-26T10:49:29.623Z,19.4
2022-08-26T10:51:29.640Z,19.4
2022-08-26T10:53:32.585Z,19.4
2022-08-26T10:55:29.656Z,19.4
2022-08-26T10:57:29.664Z,19.5
2022-08-26T10:59:29.667Z,19.5
2022-08-26T11:01:29.686Z,19.5
2022-08-26T11:03:29.944Z,19.5
2022-08-26T11:05:29.683Z,19.5
2022-08-26T11:07:29.699Z,19.5
2022-08-26T11:09:29.712Z,19.5
2022-08-26T11:11:29.720Z,19.5
2022-08-26T11:13:29.735Z,19.5
2022-08-26T11:15:29.746Z,19.5
2022-08-26T11:17:29.764Z,19.5
2022-08-26T11:19:40.077Z,19.5
2022-08-26T11:21:29.789Z,19.5
2022-08-26T11:23:29.790Z,19.5
2022-08-26T11:25:31.017Z,19.5
2022-08-26T11:27:29.828Z,19.5
2022-08-26T11:29:29.829Z,19.5
2022-08-26T11:31:29.890Z,19.6
2022-08-26T11:33:29.846Z,19.6
2022-08-26T11:35:29.850Z,19.6
2022-08-26T11:37:29.863Z,19.6
2022-08-26T11:39:29.873Z,19.6
2022-08-26T11:41:29.883Z,19.6
2022-08-26T11:43:30.262Z,19.6
2022-08-26T11:45:29.935Z,19.6
2022-08-26T11:47:29.916Z,19.6
2022-08-26T11:49:29.933Z,19.6
2022-08-26T11:51:29.943Z,19.6
2022-08-26T11:53:29.968Z,19.6
2022-08-26T11:55:29.941Z,19.6
2022-08-26T11:57:29.944Z,19.6
2022-08-26T11:59:29.969Z,19.6
2022-08-26T12:01:31.250Z,19.6
2022-08-26T12:03:30.065Z,19.6
2022-08-26T12:05:31.062Z,19.6
2022-08-26T12:07:30.011Z,19.6
2022-08-26T12:09:30.029Z,19.6
2022-08-26T12:11:30.047Z,19.6
2022-08-26T12:13:30.050Z,19.6
2022-08-26T12:15:30.071Z,19.6
2022-08-26T12:17:30.077Z,19.6
2022-08-26T12:19:32.806Z,19.6
2022-08-26T12:21:31.572Z,19.6
2022-08-26T12:23:30.105Z,19.7
2022-08-26T12:25:30.709Z,19.7
2022-08-26T12:27:30.107Z,19.7
2022-08-26T12:29:30.116Z,19.7
2022-08-26T12:31:30.164Z,19.7
2022-08-26T12:33:30.136Z,19.7
2022-08-26T12:35:30.145Z,19.7
2022-08-26T12:37:30.146Z,19.7
2022-08-26T12:39:30.149Z,19.7
2022-08-26T12:41:30.158Z,19.7
2022-08-26T12:43:30.161Z,19.7
2022-08-26T12:45:30.223Z,19.7
2022-08-26T12:47:32.741Z,19.7
2022-08-26T12:49:30.177Z,19.8
2022-08-26T12:51:30.175Z,19.8
2022-08-26T12:53:30.173Z,19.8
2022-08-26T12:55:30.180Z,19.8
2022-08-26T12:57:30.188Z,19.8
2022-08-26T12:59:30.202Z,19.8
2022-08-26T13:01:30.312Z,19.8
2022-08-26T13:03:30.247Z,19.8
2022-08-26T13:05:30.213Z,19.8
2022-08-26T13:07:30.219Z,19.8
2022-08-26T13:09:30.222Z,19.8
2022-08-26T13:11:30.239Z,19.8
2022-08-26T13:13:30.248Z,19.8
2022-08-26T13:15:30.255Z,19.8
2022-08-26T13:17:30.246Z,19.8
2022-08-26T13:19:30.252Z,19.8
2022-08-26T13:21:31.990Z,19.8
2022-08-26T13:23:30.269Z,19.8
2022-08-26T13:25:30.274Z,19.8
2022-08-26T13:27:30.284Z,19.8
2022-08-26T13:29:30.287Z,19.8
2022-08-26T13:31:30.330Z,19.9
2022-08-26T13:33:30.297Z,19.8
2022-08-26T13:35:30.302Z,19.9
2022-08-26T13:37:34.804Z,19.9
2022-08-26T13:39:30.328Z,19.9
2022-08-26T13:41:30.329Z,19.9
2022-08-26T13:43:30.334Z,19.9
2022-08-26T13:45:30.335Z,19.9
2022-08-26T13:47:30.340Z,19.9
2022-08-26T13:49:30.349Z,19.9
2022-08-26T13:51:30.350Z,19.9
2022-08-26T13:53:30.356Z,19.9
2022-08-26T13:55:30.373Z,19.9
2022-08-26T13:57:30.564Z,19.9
2022-08-26T13:59:30.387Z,19.9
2022-08-26T14:01:30.395Z,19.9
2022-08-26T14:03:30.448Z,19.9
2022-08-26T14:05:30.405Z,19.9
2022-08-26T14:07:30.411Z,19.9
2022-08-26T14:09:30.425Z,20
2022-08-26T14:11:34.792Z,20
2022-08-26T14:13:30.433Z,20
2022-08-26T14:15:30.440Z,20
2022-08-26T14:17:30.732Z,20
2022-08-26T14:19:30.448Z,20
2022-08-26T14:21:30.459Z,20
2022-08-26T14:23:30.467Z,20
2022-08-26T14:25:30.482Z,20
2022-08-26T14:27:30.491Z,20
2022-08-26T14:29:30.504Z,20
2022-08-26T14:31:30.604Z,20.1
2022-08-26T14:33:30.516Z,20.1
2022-08-26T14:35:30.526Z,20.1
2022-08-26T14:37:30.514Z,20.1
2022-08-26T14:39:30.515Z,20.1
2022-08-26T14:41:30.517Z,20.1
2022-08-26T14:43:30.527Z,20.1
2022-08-26T14:45:30.642Z,20.1
2022-08-26T14:47:30.553Z,20.1
2022-08-26T14:49:30.558Z,20.1
2022-08-26T14:51:30.558Z,20.1
2022-08-26T14:53:30.569Z,20.1
2022-08-26T14:55:30.576Z,20.1
2022-08-26T14:57:30.593Z,20.1
2022-08-26T14:59:30.604Z,20.1
2022-08-26T15:01:31.023Z,20.1
2022-08-26T15:03:30.608Z,20.1
2022-08-26T15:05:30.612Z,20.1
2022-08-26T15:07:30.619Z,20.1
2022-08-26T15:09:30.635Z,20.1
2022-08-26T15:11:30.645Z,20.2
2022-08-26T15:13:30.645Z,20.2
2022-08-26T15:15:30.655Z,20.2
2022-08-26T15:17:30.666Z,20.2
2022-08-26T15:19:30.685Z,20.2
2022-08-26T15:21:30.683Z,20.2
2022-08-26T15:23:30.691Z,20.2
2022-08-26T15:25:30.715Z,20.2
2022-08-26T15:27:30.722Z,20.2
2022-08-26T15:29:30.720Z,20.2
2022-08-26T15:31:30.786Z,20.2
2022-08-26T15:33:30.734Z,20.3
2022-08-26T15:35:32.950Z,20.3
2022-08-26T15:37:30.745Z,20.3
2022-08-26T15:39:30.752Z,20.4
2022-08-26T15:41:30.772Z,20.5
2022-08-26T15:43:30.781Z,20.6
2022-08-26T15:45:30.779Z,20.6
2022-08-26T15:47:30.799Z,20.7
2022-08-26T15:49:30.814Z,20.8
2022-08-26T15:51:30.820Z,20.8
2022-08-26T15:53:31.089Z,20.8
2022-08-26T15:55:30.825Z,20.8
2022-08-26T15:57:30.832Z,20.9
2022-08-26T15:59:30.847Z,20.9
2022-08-26T16:01:30.877Z,20.9
2022-08-26T16:03:30.875Z,20.9
2022-08-26T16:05:30.946Z,21
2022-08-26T16:07:30.872Z,21
2022-08-26T16:09:30.895Z,21.1
2022-08-26T16:11:30.902Z,21.1
2022-08-26T16:13:31.839Z,21.1
2022-08-26T16:15:30.929Z,21.1
2022-08-26T16:17:31.067Z,21.1
2022-08-26T16:19:30.954Z,21.1
2022-08-26T16:21:30.942Z,21.1
2022-08-26T16:23:30.948Z,21.1
2022-08-26T16:25:30.957Z,21.1
2022-08-26T16:27:30.962Z,21
2022-08-26T16:29:30.964Z,21
2022-08-26T16:31:31.067Z,21
2022-08-26T16:33:30.975Z,21
2022-08-26T16:35:30.985Z,20.9
2022-08-26T16:37:30.995Z,20.9
2022-08-26T16:39:30.984Z,20.9
2022-08-26T16:41:30.980Z,20.9
2022-08-26T16:43:30.977Z,20.9
2022-08-26T16:45:30.982Z,20.9
2022-08-26T16:47:30.985Z,20.9
2022-08-26T16:49:30.991Z,20.9
2022-08-26T16:51:30.996Z,20.8
2022-08-26T16:53:30.998Z,20.8
2022-08-26T16:55:31.001Z,20.8
2022-08-26T16:57:31.002Z,20.8
2022-08-26T16:59:30.991Z,20.8
2022-08-26T17:01:31.031Z,20.8
2022-08-26T17:03:30.992Z,20.8
2022-08-26T17:05:31.008Z,20.7
2022-08-26T17:07:31.002Z,20.7
2022-08-26T17:09:31.008Z,20.7
2022-08-26T17:11:31.017Z,20.7
2022-08-26T17:13:34.982Z,20.7
2022-08-26T17:15:31.048Z,20.6
2022-08-26T17:17:31.006Z,20.6
2022-08-26T17:19:31.004Z,20.6
2022-08-26T17:21:31.009Z,20.6
2022-08-26T17:23:31.016Z,20.6
2022-08-26T17:25:31.011Z,20.6
2022-08-26T17:27:31.012Z,20.6
2022-08-26T17:29:31.017Z,20.6
2022-08-26T17:31:31.083Z,20.6
2022-08-26T17:33:31.033Z,20.6
2022-08-26T17:35:31.027Z,20.6
2022-08-26T17:37:31.029Z,20.6
2022-08-26T17:39:31.026Z,20.6
2022-08-26T17:41:31.032Z,20.6
2022-08-26T17:43:31.035Z,20.6
2022-08-26T17:45:31.030Z,20.6
2022-08-26T17:47:31.032Z,20.6
2022-08-26T17:49:31.033Z,20.6
2022-08-26T17:51:31.034Z,20.6
2022-08-26T17:53:31.036Z,20.6
2022-08-26T17:55:31.038Z,20.6
2022-08-26T17:57:31.042Z,20.6
2022-08-26T17:59:31.039Z,20.6
2022-08-26T18:01:31.113Z,20.6
2022-08-26T18:03:31.077Z,20.5
2022-08-26T18:05:31.051Z,20.6
2022-08-26T18:07:31.049Z,20.5
2022-08-26T18:09:31.045Z,20.5
2022-08-26T18:11:31.060Z,20.5
2022-08-26T18:13:31.049Z,20.5
2022-08-26T18:15:31.137Z,20.5
2022-08-26T18:17:31.056Z,20.5
2022-08-26T18:19:31.095Z,20.5
2022-08-26T18:21:31.069Z,20.5
2022-08-26T18:23:31.359Z,20.5
2022-08-26T18:25:31.062Z,20.5
2022-08-26T18:27:31.069Z,20.5
2022-08-26T18:29:31.071Z,20.5
2022-08-26T18:31:31.151Z,20.4
2022-08-26T18:33:31.068Z,20.4
2022-08-26T18:35:31.076Z,20.4
2022-08-26T18:37:31.642Z,20.4
2022-08-26T18:39:31.078Z,20.4
2022-08-26T18:41:31.074Z,20.4
2022-08-26T18:43:31.074Z,20.4
2022-08-26T18:45:31.080Z,20.4
2022-08-26T18:47:31.084Z,20.4
2022-08-26T18:49:31.078Z,20.4
2022-08-26T18:51:31.087Z,20.4
2022-08-26T18:53:31.088Z,20.4
2022-08-26T18:55:31.093Z,20.4
2022-08-26T18:57:31.322Z,20.4
2022-08-26T18:59:31.095Z,20.4
2022-08-26T19:01:31.153Z,20.4
2022-08-26T19:03:31.096Z,20.4
2022-08-26T19:05:31.102Z,20.4
2022-08-26T19:07:31.107Z,20.4
2022-08-26T19:09:31.116Z,20.4
2022-08-26T19:11:32.716Z,20.4
2022-08-26T19:13:31.115Z,20.4
2022-08-26T19:15:31.116Z,20.4
2022-08-26T19:17:31.122Z,20.4
2022-08-26T19:19:31.128Z,20.4
2022-08-26T19:21:31.134Z,20.4
2022-08-26T19:23:32.394Z,20.4
2022-08-26T19:25:31.133Z,20.4
2022-08-26T19:27:31.136Z,20.4
2022-08-26T19:29:31.149Z,20.4
2022-08-26T19:31:31.157Z,20.4
2022-08-26T19:33:31.145Z,20.4
2022-08-26T19:35:31.151Z,20.4
2022-08-26T19:37:31.156Z,20.4
2022-08-26T19:39:31.156Z,20.4
2022-08-26T19:41:36.762Z,20.4
2022-08-26T19:43:31.170Z,20.4
2022-08-26T19:45:31.171Z,20.4
2022-08-26T19:47:31.167Z,20.4
2022-08-26T19:49:31.167Z,20.4
2022-08-26T19:51:31.173Z,20.3
2022-08-26T19:53:31.177Z,20.4
2022-08-26T19:55:31.181Z,20.3
2022-08-26T19:57:31.178Z,20.3
2022-08-26T19:59:31.185Z,20.4
2022-08-26T20:01:31.297Z,20.3
2022-08-26T20:03:31.189Z,20.3
2022-08-26T20:05:31.199Z,20.3
2022-08-26T20:07:31.199Z,20.3
2022-08-26T20:09:31.207Z,20.3
2022-08-26T20:11:31.211Z,20.3
2022-08-26T20:13:31.207Z,20.3
2022-08-26T20:15:31.215Z,20.3
2022-08-26T20:17:31.345Z,20.3
2022-08-26T20:19:34.369Z,20.3
2022-08-26T20:21:31.228Z,20.3
2022-08-26T20:23:31.229Z,20.3
2022-08-26T20:25:31.232Z,20.3
2022-08-26T20:27:38.154Z,20.3
2022-08-26T20:29:31.238Z,20.3
2022-08-26T20:31:31.300Z,20.3
2022-08-26T20:33:31.258Z,20.3
2022-08-26T20:35:31.256Z,20.3
2022-08-26T20:37:31.264Z,20.3
2022-08-26T20:39:31.264Z,20.3
2022-08-26T20:41:31.274Z,20.3
2022-08-26T20:43:31.271Z,20.3
2022-08-26T20:45:31.297Z,20.3
2022-08-26T20:47:31.280Z,20.3
2022-08-26T20:49:31.281Z,20.3
2022-08-26T20:51:31.291Z,20.3
2022-08-26T20:53:31.296Z,20.3
2022-08-26T20:55:31.302Z,20.3
2022-08-26T20:57:31.302Z,20.3
2022-08-26T20:59:31.313Z,20.3
2022-08-26T21:01:31.506Z,20.3
2022-08-26T21:03:31.343Z,20.3
2022-08-26T21:05:31.314Z,20.3
2022-08-26T21:07:31.323Z,20.3
2022-08-26T21:09:31.317Z,20.3
2022-08-26T21:11:31.327Z,20.3
2022-08-26T21:13:39.168Z,20.3
2022-08-26T21:15:31.341Z,20.3
2022-08-26T21:17:31.352Z,20.3
2022-08-26T21:19:31.366Z,20.3
2022-08-26T21:21:31.356Z,20.3
2022-08-26T21:23:31.373Z,20.3
2022-08-26T21:25:31.372Z,20.3
2022-08-26T21:27:31.372Z,20.3
2022-08-26T21:29:31.387Z,20.3
2022-08-26T21:31:31.448Z,20.3
2022-08-26T21:33:31.399Z,20.3
2022-08-26T21:35:31.389Z,20.3
2022-08-26T21:37:31.395Z,20.3
2022-08-26T21:39:31.396Z,20.3
2022-08-26T21:41:31.409Z,20.3
2022-08-26T21:43:35.274Z,20.3
2022-08-26T21:45:31.472Z,20.3
2022-08-26T21:47:31.415Z,20.3
2022-08-26T21:49:31.430Z,20.3
2022-08-26T21:51:31.431Z,20.3
2022-08-26T21:53:31.435Z,20.3
2022-08-26T21:55:31.445Z,20.3
2022-08-26T21:57:31.447Z,20.3
2022-08-26T21:59:31.442Z,20.3
2022-08-26T22:01:31.499Z,20.3
2022-08-26T22:03:31.455Z,20.3
2022-08-26T22:05:31.470Z,20.3
2022-08-26T22:07:31.470Z,20.3
2022-08-26T22:09:31.476Z,20.3
2022-08-26T22:11:31.488Z,20.3
2022-08-26T22:13:31.491Z,20.3
2022-08-26T22:15:31.507Z,20.3
2022-08-26T22:17:31.510Z,20.3
2022-08-26T22:19:31.511Z,20.2
2022-08-26T22:21:31.540Z,20.3
2022-08-26T22:23:31.522Z,20.3
2022-08-26T22:25:31.534Z,20.2
2022-08-26T22:27:31.538Z,20.3
2022-08-26T22:29:31.536Z,20.3
2022-08-26T22:31:36.988Z,20.2
2022-08-26T22:33:31.544Z,20.2
2022-08-26T22:35:31.551Z,20.2
2022-08-26T22:37:31.547Z,20.2
2022-08-26T22:39:31.563Z,20.2
2022-08-26T22:41:32.638Z,20.2
2022-08-26T22:43:31.581Z,20.2
2022-08-26T22:45:31.647Z,20.2
2022-08-26T22:47:31.585Z,20.2
2022-08-26T22:49:31.581Z,20.2
2022-08-26T22:51:31.594Z,20.2
2022-08-26T22:53:32.720Z,20.2
2022-08-26T22:55:31.622Z,20.2
2022-08-26T22:57:31.631Z,20.2
2022-08-26T22:59:31.632Z,20.2
2022-08-26T23:01:31.747Z,20.2
2022-08-26T23:03:31.657Z,20.2
2022-08-26T23:05:31.643Z,20.2
2022-08-26T23:07:31.656Z,20.2
2022-08-26T23:09:31.658Z,20.2
2022-08-26T23:11:31.664Z,20.2
2022-08-26T23:13:32.016Z,20.2
2022-08-26T23:15:31.674Z,20.2
2022-08-26T23:17:31.676Z,20.2
2022-08-26T23:19:31.688Z,20.2
2022-08-26T23:21:31.694Z,20.2
2022-08-26T23:23:31.695Z,20.2
2022-08-26T23:25:31.700Z,20.2
2022-08-26T23:27:31.712Z,20.2
2022-08-26T23:29:31.712Z,20.2
2022-08-26T23:31:31.755Z,20.2
2022-08-26T23:33:31.726Z,20.2
2022-08-26T23:35:31.732Z,20.2
2022-08-26T23:37:31.738Z,20.2
2022-08-26T23:39:31.737Z,20.2
2022-08-26T23:41:31.748Z,20.2
2022-08-26T23:43:31.750Z,20.2
2022-08-26T23:45:31.790Z,20.2
2022-08-26T23:47:31.770Z,20.2
2022-08-26T23:49:31.758Z,20.2
2022-08-26T23:51:31.773Z,20.2
2022-08-26T23:53:31.784Z,20.2
2022-08-26T23:55:31.788Z,20.2
2022-08-26T23:57:31.808Z,20.2
2022-08-26T23:59:31.797Z,20.2
